sensor_id;sensor_type;location;lat;lon;timestamp;temperature;humidity
43641;DHT22;72791;52.546;13.570;2023-11-19T00:00:38;4.10;99.90
43641;DHT22;72791;52.546;13.570;2023-11-19T00:03:04;4.10;99.90
43641;DHT22;72791;52.546;13.570;2023-11-19T00:05:31;4.10;99.90
43641;DHT22;72791;52.546;13.570;2023-11-19T00:07:57;4.10;99.90
43641;DHT22;72791;52.546;13.570;2023-11-19T00:10:22;4.10;99.90
43641;DHT22;72791;52.546;13.570;2023-11-19T00:12:50;4.10;99.90
43641;DHT22;72791;52.546;13.570;2023-11-19T00:15:18;4.10;99.90
43641;DHT22;72791;52.546;13.570;2023-11-19T00:17:47;4.10;99.90
43641;DHT22;72791;52.546;13.570;2023-11-19T00:20:15;4.10;99.90
43641;DHT22;72791;52.546;13.570;2023-11-19T00:22:43;4.10;99.90
43641;DHT22;72791;52.546;13.570;2023-11-19T00:25:09;4.00;99.90
43641;DHT22;72791;52.546;13.570;2023-11-19T00:27:36;4.00;99.90
43641;DHT22;72791;52.546;13.570;2023-11-19T00:30:04;4.00;99.90
43641;DHT22;72791;52.546;13.570;2023-11-19T00:32:31;4.00;99.90
43641;DHT22;72791;52.546;13.570;2023-11-19T00:34:57;4.00;99.90
43641;DHT22;72791;52.546;13.570;2023-11-19T00:37:24;4.00;99.90
43641;DHT22;72791;52.546;13.570;2023-11-19T00:39:51;3.90;99.90
43641;DHT22;72791;52.546;13.570;2023-11-19T00:42:17;3.90;99.90
43641;DHT22;72791;52.546;13.570;2023-11-19T00:44:43;3.90;99.90
43641;DHT22;72791;52.546;13.570;2023-11-19T00:47:11;3.90;99.90
43641;DHT22;72791;52.546;13.570;2023-11-19T00:49:38;3.90;99.90
43641;DHT22;72791;52.546;13.570;2023-11-19T00:52:04;3.90;99.90
43641;DHT22;72791;52.546;13.570;2023-11-19T00:54:29;3.90;99.90
43641;DHT22;72791;52.546;13.570;2023-11-19T00:56:55;3.90;99.90
43641;DHT22;72791;52.546;13.570;2023-11-19T00:59:21;3.90;99.90
43641;DHT22;72791;52.546;13.570;2023-11-19T01:01:47;3.90;99.90
43641;DHT22;72791;52.546;13.570;2023-11-19T01:04:19;3.90;99.90
43641;DHT22;72791;52.546;13.570;2023-11-19T01:06:44;3.90;99.90
43641;DHT22;72791;52.546;13.570;2023-11-19T01:09:10;3.90;99.90
43641;DHT22;72791;52.546;13.570;2023-11-19T01:11:36;3.90;99.90
43641;DHT22;72791;52.546;13.570;2023-11-19T01:14:05;3.90;99.90
43641;DHT22;72791;52.546;13.570;2023-11-19T01:16:31;3.90;99.90
43641;DHT22;72791;52.546;13.570;2023-11-19T01:18:56;4.00;99.90
43641;DHT22;72791;52.546;13.570;2023-11-19T01:21:22;4.00;99.90
43641;DHT22;72791;52.546;13.570;2023-11-19T01:23:48;4.00;99.90
43641;DHT22;72791;52.546;13.570;2023-11-19T01:26:14;4.00;99.90
43641;DHT22;72791;52.546;13.570;2023-11-19T01:28:40;4.00;99.90
43641;DHT22;72791;52.546;13.570;2023-11-19T01:31:15;4.00;99.90
43641;DHT22;72791;52.546;13.570;2023-11-19T01:33:42;4.00;99.90
43641;DHT22;72791;52.546;13.570;2023-11-19T01:36:08;4.00;99.90
43641;DHT22;72791;52.546;13.570;2023-11-19T01:38:34;4.00;99.90
43641;DHT22;72791;52.546;13.570;2023-11-19T01:41:01;4.00;99.90
43641;DHT22;72791;52.546;13.570;2023-11-19T01:43:36;4.00;99.90
43641;DHT22;72791;52.546;13.570;2023-11-19T01:46:04;4.00;99.90
43641;DHT22;72791;52.546;13.570;2023-11-19T01:48:31;4.00;99.90
43641;DHT22;72791;52.546;13.570;2023-11-19T01:50:58;4.10;99.90
43641;DHT22;72791;52.546;13.570;2023-11-19T01:53:25;4.10;99.90
43641;DHT22;72791;52.546;13.570;2023-11-19T01:55:51;4.10;99.90
43641;DHT22;72791;52.546;13.570;2023-11-19T01:58:18;4.10;99.90
43641;DHT22;72791;52.546;13.570;2023-11-19T02:00:45;4.10;99.90
43641;DHT22;72791;52.546;13.570;2023-11-19T02:03:11;4.10;99.90
43641;DHT22;72791;52.546;13.570;2023-11-19T02:05:37;4.10;99.90
43641;DHT22;72791;52.546;13.570;2023-11-19T02:08:04;4.20;99.90
43641;DHT22;72791;52.546;13.570;2023-11-19T02:10:30;4.20;99.90
43641;DHT22;72791;52.546;13.570;2023-11-19T02:12:58;4.20;99.90
43641;DHT22;72791;52.546;13.570;2023-11-19T02:15:24;4.20;99.90
43641;DHT22;72791;52.546;13.570;2023-11-19T02:17:51;4.30;99.90
43641;DHT22;72791;52.546;13.570;2023-11-19T02:20:17;4.20;99.90
43641;DHT22;72791;52.546;13.570;2023-11-19T02:22:47;4.30;99.90
43641;DHT22;72791;52.546;13.570;2023-11-19T02:25:20;4.30;99.90
43641;DHT22;72791;52.546;13.570;2023-11-19T02:27:55;4.30;99.90
43641;DHT22;72791;52.546;13.570;2023-11-19T02:30:22;4.30;99.90
43641;DHT22;72791;52.546;13.570;2023-11-19T02:33:00;4.20;99.90
43641;DHT22;72791;52.546;13.570;2023-11-19T02:35:28;4.30;99.90
43641;DHT22;72791;52.546;13.570;2023-11-19T02:37:57;4.20;99.90
43641;DHT22;72791;52.546;13.570;2023-11-19T02:40:23;4.20;99.90
43641;DHT22;72791;52.546;13.570;2023-11-19T02:42:50;4.20;99.90
43641;DHT22;72791;52.546;13.570;2023-11-19T02:45:17;4.20;99.90
43641;DHT22;72791;52.546;13.570;2023-11-19T02:47:43;4.30;99.90
43641;DHT22;72791;52.546;13.570;2023-11-19T02:50:12;4.20;99.90
43641;DHT22;72791;52.546;13.570;2023-11-19T02:52:42;4.30;99.90
43641;DHT22;72791;52.546;13.570;2023-11-19T02:55:09;4.30;99.90
43641;DHT22;72791;52.546;13.570;2023-11-19T02:57:38;4.30;99.90
43641;DHT22;72791;52.546;13.570;2023-11-19T03:00:13;4.30;99.90
43641;DHT22;72791;52.546;13.570;2023-11-19T03:02:40;4.30;99.90
43641;DHT22;72791;52.546;13.570;2023-11-19T03:05:12;4.30;99.90
43641;DHT22;72791;52.546;13.570;2023-11-19T03:07:41;4.30;99.90
43641;DHT22;72791;52.546;13.570;2023-11-19T03:10:08;4.30;99.90
43641;DHT22;72791;52.546;13.570;2023-11-19T03:12:34;4.30;99.90
43641;DHT22;72791;52.546;13.570;2023-11-19T03:15:01;4.30;99.90
43641;DHT22;72791;52.546;13.570;2023-11-19T03:17:27;4.30;99.90
43641;DHT22;72791;52.546;13.570;2023-11-19T03:19:52;4.40;99.90
43641;DHT22;72791;52.546;13.570;2023-11-19T03:22:19;4.40;99.90
43641;DHT22;72791;52.546;13.570;2023-11-19T03:24:46;4.40;99.90
43641;DHT22;72791;52.546;13.570;2023-11-19T03:27:13;4.40;99.90
43641;DHT22;72791;52.546;13.570;2023-11-19T03:29:38;4.40;99.90
43641;DHT22;72791;52.546;13.570;2023-11-19T03:32:05;4.40;99.90
43641;DHT22;72791;52.546;13.570;2023-11-19T03:34:31;4.40;99.90
43641;DHT22;72791;52.546;13.570;2023-11-19T03:36:57;4.50;99.90
43641;DHT22;72791;52.546;13.570;2023-11-19T03:39:23;4.50;99.90
43641;DHT22;72791;52.546;13.570;2023-11-19T03:41:51;4.50;99.90
43641;DHT22;72791;52.546;13.570;2023-11-19T03:44:17;4.50;99.90
43641;DHT22;72791;52.546;13.570;2023-11-19T03:46:45;4.60;99.90
43641;DHT22;72791;52.546;13.570;2023-11-19T03:49:12;4.60;99.90
43641;DHT22;72791;52.546;13.570;2023-11-19T03:51:37;4.60;99.90
43641;DHT22;72791;52.546;13.570;2023-11-19T03:54:03;4.60;99.90
43641;DHT22;72791;52.546;13.570;2023-11-19T03:56:29;4.60;99.90
43641;DHT22;72791;52.546;13.570;2023-11-19T03:58:56;4.60;99.90
43641;DHT22;72791;52.546;13.570;2023-11-19T04:01:22;4.50;99.90
43641;DHT22;72791;52.546;13.570;2023-11-19T04:03:47;4.50;99.90
43641;DHT22;72791;52.546;13.570;2023-11-19T04:06:13;4.50;99.90
43641;DHT22;72791;52.546;13.570;2023-11-19T04:08:39;4.50;99.90
43641;DHT22;72791;52.546;13.570;2023-11-19T04:11:05;4.50;99.90
43641;DHT22;72791;52.546;13.570;2023-11-19T04:13:31;4.50;99.90
43641;DHT22;72791;52.546;13.570;2023-11-19T04:15:57;4.40;99.90
43641;DHT22;72791;52.546;13.570;2023-11-19T04:18:23;4.40;99.90
43641;DHT22;72791;52.546;13.570;2023-11-19T04:20:49;4.40;99.90
43641;DHT22;72791;52.546;13.570;2023-11-19T04:23:15;4.40;99.90
43641;DHT22;72791;52.546;13.570;2023-11-19T04:25:41;4.40;99.90
43641;DHT22;72791;52.546;13.570;2023-11-19T04:28:07;4.40;99.90
43641;DHT22;72791;52.546;13.570;2023-11-19T04:30:33;4.40;99.90
43641;DHT22;72791;52.546;13.570;2023-11-19T04:32:59;4.40;99.90
43641;DHT22;72791;52.546;13.570;2023-11-19T04:35:25;4.40;99.90
43641;DHT22;72791;52.546;13.570;2023-11-19T04:37:51;4.40;99.90
43641;DHT22;72791;52.546;13.570;2023-11-19T04:40:17;4.40;99.90
43641;DHT22;72791;52.546;13.570;2023-11-19T04:42:48;4.40;99.90
43641;DHT22;72791;52.546;13.570;2023-11-19T04:45:13;4.40;99.90
43641;DHT22;72791;52.546;13.570;2023-11-19T04:47:39;4.40;99.90
43641;DHT22;72791;52.546;13.570;2023-11-19T04:50:06;4.30;99.90
43641;DHT22;72791;52.546;13.570;2023-11-19T04:52:39;4.30;99.90
43641;DHT22;72791;52.546;13.570;2023-11-19T04:55:07;4.40;99.90
43641;DHT22;72791;52.546;13.570;2023-11-19T04:57:33;4.30;99.90
43641;DHT22;72791;52.546;13.570;2023-11-19T04:59:58;4.30;99.90
43641;DHT22;72791;52.546;13.570;2023-11-19T05:02:24;4.40;99.90
43641;DHT22;72791;52.546;13.570;2023-11-19T05:04:50;4.30;99.90
43641;DHT22;72791;52.546;13.570;2023-11-19T05:07:36;4.30;99.90
43641;DHT22;72791;52.546;13.570;2023-11-19T05:10:02;4.40;99.90
43641;DHT22;72791;52.546;13.570;2023-11-19T05:12:31;4.40;99.90
43641;DHT22;72791;52.546;13.570;2023-11-19T05:14:56;4.40;99.90
43641;DHT22;72791;52.546;13.570;2023-11-19T05:17:23;4.40;99.90
43641;DHT22;72791;52.546;13.570;2023-11-19T05:19:49;4.30;99.90
43641;DHT22;72791;52.546;13.570;2023-11-19T05:22:15;4.30;99.90
43641;DHT22;72791;52.546;13.570;2023-11-19T05:24:40;4.30;99.90
43641;DHT22;72791;52.546;13.570;2023-11-19T05:27:07;4.30;99.90
43641;DHT22;72791;52.546;13.570;2023-11-19T05:29:33;4.30;99.90
43641;DHT22;72791;52.546;13.570;2023-11-19T05:32:01;4.20;99.90
43641;DHT22;72791;52.546;13.570;2023-11-19T05:34:27;4.30;99.90
43641;DHT22;72791;52.546;13.570;2023-11-19T05:36:54;4.30;99.90
43641;DHT22;72791;52.546;13.570;2023-11-19T05:39:20;4.20;99.90
43641;DHT22;72791;52.546;13.570;2023-11-19T05:41:45;4.20;99.90
43641;DHT22;72791;52.546;13.570;2023-11-19T05:44:12;4.20;99.90
43641;DHT22;72791;52.546;13.570;2023-11-19T05:46:38;4.20;99.90
43641;DHT22;72791;52.546;13.570;2023-11-19T05:49:08;4.20;99.90
43641;DHT22;72791;52.546;13.570;2023-11-19T05:51:39;4.20;99.90
43641;DHT22;72791;52.546;13.570;2023-11-19T05:54:09;4.20;99.90
43641;DHT22;72791;52.546;13.570;2023-11-19T05:56:37;4.20;99.90
43641;DHT22;72791;52.546;13.570;2023-11-19T05:59:04;4.20;99.90
43641;DHT22;72791;52.546;13.570;2023-11-19T06:01:34;4.30;99.90
43641;DHT22;72791;52.546;13.570;2023-11-19T06:04:00;4.30;99.90
43641;DHT22;72791;52.546;13.570;2023-11-19T06:06:28;4.30;99.90
43641;DHT22;72791;52.546;13.570;2023-11-19T06:08:54;4.30;99.90
43641;DHT22;72791;52.546;13.570;2023-11-19T06:11:20;4.30;99.90
43641;DHT22;72791;52.546;13.570;2023-11-19T06:13:47;4.30;99.90
43641;DHT22;72791;52.546;13.570;2023-11-19T06:16:15;4.30;99.90
43641;DHT22;72791;52.546;13.570;2023-11-19T06:18:41;4.30;99.90
43641;DHT22;72791;52.546;13.570;2023-11-19T06:21:08;4.30;99.90
43641;DHT22;72791;52.546;13.570;2023-11-19T06:23:35;4.30;99.90
43641;DHT22;72791;52.546;13.570;2023-11-19T06:26:01;4.40;99.90
43641;DHT22;72791;52.546;13.570;2023-11-19T06:28:26;4.40;99.90
43641;DHT22;72791;52.546;13.570;2023-11-19T06:30:53;4.40;99.90
43641;DHT22;72791;52.546;13.570;2023-11-19T06:33:18;4.40;99.90
43641;DHT22;72791;52.546;13.570;2023-11-19T06:35:45;4.40;99.90
43641;DHT22;72791;52.546;13.570;2023-11-19T06:38:11;4.40;99.90
43641;DHT22;72791;52.546;13.570;2023-11-19T06:40:37;4.40;99.90
43641;DHT22;72791;52.546;13.570;2023-11-19T06:43:06;4.50;99.90
43641;DHT22;72791;52.546;13.570;2023-11-19T06:45:34;4.50;99.90
43641;DHT22;72791;52.546;13.570;2023-11-19T06:48:04;4.50;99.90
43641;DHT22;72791;52.546;13.570;2023-11-19T06:50:31;4.50;99.90
43641;DHT22;72791;52.546;13.570;2023-11-19T06:52:57;4.50;99.90
43641;DHT22;72791;52.546;13.570;2023-11-19T06:55:44;4.60;99.90
43641;DHT22;72791;52.546;13.570;2023-11-19T06:58:09;4.60;99.90
43641;DHT22;72791;52.546;13.570;2023-11-19T07:00:35;4.50;99.90
43641;DHT22;72791;52.546;13.570;2023-11-19T07:03:02;4.50;99.90
43641;DHT22;72791;52.546;13.570;2023-11-19T07:05:29;4.50;99.90
43641;DHT22;72791;52.546;13.570;2023-11-19T07:07:56;4.60;99.90
43641;DHT22;72791;52.546;13.570;2023-11-19T07:10:22;4.60;99.90
43641;DHT22;72791;52.546;13.570;2023-11-19T07:12:47;4.60;99.90
43641;DHT22;72791;52.546;13.570;2023-11-19T07:15:15;4.60;99.90
43641;DHT22;72791;52.546;13.570;2023-11-19T07:17:43;4.70;99.90
43641;DHT22;72791;52.546;13.570;2023-11-19T07:20:11;4.70;99.90
43641;DHT22;72791;52.546;13.570;2023-11-19T07:22:44;4.70;99.90
43641;DHT22;72791;52.546;13.570;2023-11-19T07:25:14;4.70;99.90
43641;DHT22;72791;52.546;13.570;2023-11-19T07:27:40;4.70;99.90
43641;DHT22;72791;52.546;13.570;2023-11-19T07:30:06;4.70;99.90
43641;DHT22;72791;52.546;13.570;2023-11-19T07:32:35;4.80;99.90
43641;DHT22;72791;52.546;13.570;2023-11-19T07:35:01;4.80;99.90
43641;DHT22;72791;52.546;13.570;2023-11-19T07:37:26;4.80;99.90
43641;DHT22;72791;52.546;13.570;2023-11-19T07:39:54;4.80;99.90
43641;DHT22;72791;52.546;13.570;2023-11-19T07:42:20;4.80;99.90
43641;DHT22;72791;52.546;13.570;2023-11-19T07:44:46;4.80;99.90
43641;DHT22;72791;52.546;13.570;2023-11-19T07:47:12;4.80;99.90
43641;DHT22;72791;52.546;13.570;2023-11-19T07:49:38;4.90;99.90
43641;DHT22;72791;52.546;13.570;2023-11-19T07:52:04;4.80;99.90
43641;DHT22;72791;52.546;13.570;2023-11-19T07:54:30;4.90;99.90
43641;DHT22;72791;52.546;13.570;2023-11-19T07:56:57;4.90;99.90
43641;DHT22;72791;52.546;13.570;2023-11-19T07:59:23;4.90;99.90
43641;DHT22;72791;52.546;13.570;2023-11-19T08:01:48;5.00;99.90
43641;DHT22;72791;52.546;13.570;2023-11-19T08:04:14;5.00;99.90
43641;DHT22;72791;52.546;13.570;2023-11-19T08:06:40;5.00;99.90
43641;DHT22;72791;52.546;13.570;2023-11-19T08:09:06;5.00;99.90
43641;DHT22;72791;52.546;13.570;2023-11-19T08:11:33;5.10;99.90
43641;DHT22;72791;52.546;13.570;2023-11-19T08:13:59;5.10;99.90
43641;DHT22;72791;52.546;13.570;2023-11-19T08:16:25;5.10;99.90
43641;DHT22;72791;52.546;13.570;2023-11-19T08:18:50;5.20;99.90
43641;DHT22;72791;52.546;13.570;2023-11-19T08:21:16;5.20;99.90
43641;DHT22;72791;52.546;13.570;2023-11-19T08:23:42;5.20;99.90
43641;DHT22;72791;52.546;13.570;2023-11-19T08:26:08;5.20;99.90
43641;DHT22;72791;52.546;13.570;2023-11-19T08:28:34;5.20;99.90
43641;DHT22;72791;52.546;13.570;2023-11-19T08:31:00;5.30;99.90
43641;DHT22;72791;52.546;13.570;2023-11-19T08:33:27;5.30;99.90
43641;DHT22;72791;52.546;13.570;2023-11-19T08:35:52;5.30;99.90
43641;DHT22;72791;52.546;13.570;2023-11-19T08:38:18;5.40;99.90
43641;DHT22;72791;52.546;13.570;2023-11-19T08:40:44;5.50;99.90
43641;DHT22;72791;52.546;13.570;2023-11-19T08:43:09;5.50;99.90
43641;DHT22;72791;52.546;13.570;2023-11-19T08:45:35;5.60;99.90
43641;DHT22;72791;52.546;13.570;2023-11-19T08:48:03;5.60;99.90
43641;DHT22;72791;52.546;13.570;2023-11-19T08:50:28;5.60;99.90
43641;DHT22;72791;52.546;13.570;2023-11-19T08:52:55;5.70;99.90
43641;DHT22;72791;52.546;13.570;2023-11-19T08:55:23;5.80;99.90
43641;DHT22;72791;52.546;13.570;2023-11-19T08:57:48;5.80;99.90
43641;DHT22;72791;52.546;13.570;2023-11-19T09:00:14;5.90;99.90
43641;DHT22;72791;52.546;13.570;2023-11-19T09:02:40;5.90;99.90
43641;DHT22;72791;52.546;13.570;2023-11-19T09:05:07;6.00;99.90
43641;DHT22;72791;52.546;13.570;2023-11-19T09:07:33;6.20;99.90
43641;DHT22;72791;52.546;13.570;2023-11-19T09:09:59;6.20;99.90
43641;DHT22;72791;52.546;13.570;2023-11-19T09:12:26;6.30;99.90
43641;DHT22;72791;52.546;13.570;2023-11-19T09:14:53;6.50;99.90
43641;DHT22;72791;52.546;13.570;2023-11-19T09:17:19;6.60;99.90
43641;DHT22;72791;52.546;13.570;2023-11-19T09:19:45;6.60;99.90
43641;DHT22;72791;52.546;13.570;2023-11-19T09:22:11;6.50;99.90
43641;DHT22;72791;52.546;13.570;2023-11-19T09:24:36;6.50;99.90
43641;DHT22;72791;52.546;13.570;2023-11-19T09:27:02;6.50;99.90
43641;DHT22;72791;52.546;13.570;2023-11-19T09:29:28;6.60;99.90
43641;DHT22;72791;52.546;13.570;2023-11-19T09:31:56;6.70;99.90
43641;DHT22;72791;52.546;13.570;2023-11-19T09:34:23;6.80;99.90
43641;DHT22;72791;52.546;13.570;2023-11-19T09:36:50;6.90;99.90
43641;DHT22;72791;52.546;13.570;2023-11-19T09:39:16;6.90;99.90
43641;DHT22;72791;52.546;13.570;2023-11-19T09:41:44;7.00;99.90
43641;DHT22;72791;52.546;13.570;2023-11-19T09:44:12;7.10;99.90
43641;DHT22;72791;52.546;13.570;2023-11-19T09:46:41;7.20;99.90
43641;DHT22;72791;52.546;13.570;2023-11-19T09:49:08;7.40;99.90
43641;DHT22;72791;52.546;13.570;2023-11-19T09:51:36;7.60;99.90
43641;DHT22;72791;52.546;13.570;2023-11-19T09:54:02;7.90;99.90
43641;DHT22;72791;52.546;13.570;2023-11-19T09:56:29;8.00;99.90
43641;DHT22;72791;52.546;13.570;2023-11-19T09:58:59;8.20;99.90
43641;DHT22;72791;52.546;13.570;2023-11-19T10:01:28;8.30;99.90
43641;DHT22;72791;52.546;13.570;2023-11-19T10:03:56;8.70;99.90
43641;DHT22;72791;52.546;13.570;2023-11-19T10:06:23;8.80;99.90
43641;DHT22;72791;52.546;13.570;2023-11-19T10:08:50;8.90;99.90
43641;DHT22;72791;52.546;13.570;2023-11-19T10:11:17;8.90;99.90
43641;DHT22;72791;52.546;13.570;2023-11-19T10:13:42;8.90;99.90
43641;DHT22;72791;52.546;13.570;2023-11-19T10:16:13;8.90;99.90
43641;DHT22;72791;52.546;13.570;2023-11-19T10:18:46;9.00;99.90
43641;DHT22;72791;52.546;13.570;2023-11-19T10:21:13;9.10;99.90
43641;DHT22;72791;52.546;13.570;2023-11-19T10:23:50;9.30;99.90
43641;DHT22;72791;52.546;13.570;2023-11-19T10:26:23;9.40;99.90
43641;DHT22;72791;52.546;13.570;2023-11-19T10:28:51;9.40;99.90
43641;DHT22;72791;52.546;13.570;2023-11-19T10:31:18;9.40;99.90
43641;DHT22;72791;52.546;13.570;2023-11-19T10:33:47;9.40;99.90
43641;DHT22;72791;52.546;13.570;2023-11-19T10:36:13;9.40;99.90
43641;DHT22;72791;52.546;13.570;2023-11-19T10:38:40;9.60;99.90
43641;DHT22;72791;52.546;13.570;2023-11-19T10:41:06;9.70;99.90
43641;DHT22;72791;52.546;13.570;2023-11-19T10:43:43;9.90;99.90
43641;DHT22;72791;52.546;13.570;2023-11-19T10:46:14;9.90;99.90
43641;DHT22;72791;52.546;13.570;2023-11-19T10:48:40;9.90;99.90
43641;DHT22;72791;52.546;13.570;2023-11-19T10:51:07;9.90;99.90
43641;DHT22;72791;52.546;13.570;2023-11-19T10:53:37;10.00;99.90
43641;DHT22;72791;52.546;13.570;2023-11-19T10:56:10;10.10;99.90
43641;DHT22;72791;52.546;13.570;2023-11-19T10:58:37;10.30;99.90
43641;DHT22;72791;52.546;13.570;2023-11-19T11:01:11;10.40;99.90
43641;DHT22;72791;52.546;13.570;2023-11-19T11:03:41;10.50;99.90
43641;DHT22;72791;52.546;13.570;2023-11-19T11:06:10;10.60;99.90
43641;DHT22;72791;52.546;13.570;2023-11-19T11:08:37;10.80;99.90
43641;DHT22;72791;52.546;13.570;2023-11-19T11:11:05;10.70;99.90
43641;DHT22;72791;52.546;13.570;2023-11-19T11:13:33;10.70;99.90
43641;DHT22;72791;52.546;13.570;2023-11-19T11:15:59;10.90;99.90
43641;DHT22;72791;52.546;13.570;2023-11-19T11:18:26;11.10;99.90
43641;DHT22;72791;52.546;13.570;2023-11-19T11:21:15;11.30;99.90
43641;DHT22;72791;52.546;13.570;2023-11-19T11:29:57;11.50;99.90
43641;DHT22;72791;52.546;13.570;2023-11-19T11:35:19;11.70;99.90
43641;DHT22;72791;52.546;13.570;2023-11-19T11:37:50;11.80;99.90
43641;DHT22;72791;52.546;13.570;2023-11-19T11:40:27;11.90;99.90
43641;DHT22;72791;52.546;13.570;2023-11-19T11:42:52;12.00;99.90
43641;DHT22;72791;52.546;13.570;2023-11-19T11:45:35;12.10;99.90
43641;DHT22;72791;52.546;13.570;2023-11-19T11:48:17;12.10;99.90
43641;DHT22;72791;52.546;13.570;2023-11-19T11:50:53;12.10;99.90
43641;DHT22;72791;52.546;13.570;2023-11-19T11:53:21;12.00;99.90
43641;DHT22;72791;52.546;13.570;2023-11-19T11:58:19;12.10;99.90
43641;DHT22;72791;52.546;13.570;2023-11-19T12:00:46;12.30;99.90
43641;DHT22;72791;52.546;13.570;2023-11-19T12:03:12;12.40;99.90
43641;DHT22;72791;52.546;13.570;2023-11-19T12:05:44;12.40;99.90
43641;DHT22;72791;52.546;13.570;2023-11-19T12:08:12;12.40;99.90
43641;DHT22;72791;52.546;13.570;2023-11-19T12:10:53;12.40;99.90
43641;DHT22;72791;52.546;13.570;2023-11-19T12:13:21;12.30;99.90
43641;DHT22;72791;52.546;13.570;2023-11-19T12:20:55;12.20;99.90
43641;DHT22;72791;52.546;13.570;2023-11-19T12:23:23;12.20;99.90
43641;DHT22;72791;52.546;13.570;2023-11-19T12:25:53;12.20;99.90
43641;DHT22;72791;52.546;13.570;2023-11-19T12:28:19;12.20;99.90
43641;DHT22;72791;52.546;13.570;2023-11-19T12:30:45;12.20;99.90
43641;DHT22;72791;52.546;13.570;2023-11-19T12:33:12;12.20;99.90
43641;DHT22;72791;52.546;13.570;2023-11-19T12:35:40;12.10;99.90
43641;DHT22;72791;52.546;13.570;2023-11-19T12:38:06;12.10;99.90
43641;DHT22;72791;52.546;13.570;2023-11-19T12:40:32;12.00;99.90
43641;DHT22;72791;52.546;13.570;2023-11-19T12:42:57;12.00;99.90
43641;DHT22;72791;52.546;13.570;2023-11-19T12:45:35;12.00;99.90
43641;DHT22;72791;52.546;13.570;2023-11-19T12:48:05;12.00;99.90
43641;DHT22;72791;52.546;13.570;2023-11-19T12:50:54;12.00;99.90
43641;DHT22;72791;52.546;13.570;2023-11-19T12:53:21;12.00;99.90
43641;DHT22;72791;52.546;13.570;2023-11-19T12:55:47;11.90;99.90
43641;DHT22;72791;52.546;13.570;2023-11-19T12:58:35;11.80;99.90
43641;DHT22;72791;52.546;13.570;2023-11-19T13:01:08;11.70;99.90
43641;DHT22;72791;52.546;13.570;2023-11-19T13:03:40;11.60;99.90
43641;DHT22;72791;52.546;13.570;2023-11-19T13:06:08;11.50;99.90
43641;DHT22;72791;52.546;13.570;2023-11-19T13:08:43;11.60;99.90
43641;DHT22;72791;52.546;13.570;2023-11-19T13:11:14;11.70;99.90
43641;DHT22;72791;52.546;13.570;2023-11-19T13:14:04;11.90;99.90
43641;DHT22;72791;52.546;13.570;2023-11-19T13:16:32;11.80;99.90
43641;DHT22;72791;52.546;13.570;2023-11-19T13:18:58;11.70;99.90
43641;DHT22;72791;52.546;13.570;2023-11-19T13:21:26;11.70;99.90
43641;DHT22;72791;52.546;13.570;2023-11-19T13:23:53;11.60;99.90
43641;DHT22;72791;52.546;13.570;2023-11-19T13:26:19;11.60;99.90
43641;DHT22;72791;52.546;13.570;2023-11-19T13:28:46;11.60;99.90
43641;DHT22;72791;52.546;13.570;2023-11-19T13:31:12;11.50;99.90
43641;DHT22;72791;52.546;13.570;2023-11-19T13:33:39;11.50;99.90
43641;DHT22;72791;52.546;13.570;2023-11-19T13:36:05;11.40;99.90
43641;DHT22;72791;52.546;13.570;2023-11-19T13:38:35;11.40;99.90
43641;DHT22;72791;52.546;13.570;2023-11-19T13:41:02;11.40;99.90
43641;DHT22;72791;52.546;13.570;2023-11-19T13:43:31;11.40;99.90
43641;DHT22;72791;52.546;13.570;2023-11-19T13:45:58;11.50;99.90
43641;DHT22;72791;52.546;13.570;2023-11-19T13:48:24;11.60;99.90
43641;DHT22;72791;52.546;13.570;2023-11-19T13:50:56;11.60;99.90
43641;DHT22;72791;52.546;13.570;2023-11-19T13:53:22;11.60;99.90
43641;DHT22;72791;52.546;13.570;2023-11-19T13:55:51;11.60;99.90
43641;DHT22;72791;52.546;13.570;2023-11-19T13:58:17;11.60;99.90
43641;DHT22;72791;52.546;13.570;2023-11-19T14:00:42;11.60;99.90
43641;DHT22;72791;52.546;13.570;2023-11-19T14:03:10;11.60;99.90
43641;DHT22;72791;52.546;13.570;2023-11-19T14:05:37;11.60;99.90
43641;DHT22;72791;52.546;13.570;2023-11-19T14:08:04;11.60;99.90
43641;DHT22;72791;52.546;13.570;2023-11-19T14:10:39;11.50;99.90
43641;DHT22;72791;52.546;13.570;2023-11-19T14:13:08;11.50;99.90
43641;DHT22;72791;52.546;13.570;2023-11-19T14:15:35;11.50;99.90
43641;DHT22;72791;52.546;13.570;2023-11-19T14:18:02;11.40;99.90
43641;DHT22;72791;52.546;13.570;2023-11-19T14:20:28;11.40;99.90
43641;DHT22;72791;52.546;13.570;2023-11-19T14:22:54;11.40;99.90
43641;DHT22;72791;52.546;13.570;2023-11-19T14:25:20;11.40;99.90
43641;DHT22;72791;52.546;13.570;2023-11-19T14:27:47;11.40;99.90
43641;DHT22;72791;52.546;13.570;2023-11-19T14:30:14;11.40;99.90
43641;DHT22;72791;52.546;13.570;2023-11-19T14:32:42;11.40;99.90
43641;DHT22;72791;52.546;13.570;2023-11-19T14:35:10;11.40;99.90
43641;DHT22;72791;52.546;13.570;2023-11-19T14:37:36;11.40;99.90
43641;DHT22;72791;52.546;13.570;2023-11-19T14:40:02;11.40;99.90
43641;DHT22;72791;52.546;13.570;2023-11-19T14:42:30;11.30;99.90
43641;DHT22;72791;52.546;13.570;2023-11-19T14:44:56;11.30;99.90
43641;DHT22;72791;52.546;13.570;2023-11-19T14:47:22;11.20;99.90
43641;DHT22;72791;52.546;13.570;2023-11-19T14:49:48;11.20;99.90
43641;DHT22;72791;52.546;13.570;2023-11-19T14:52:15;11.20;99.90
43641;DHT22;72791;52.546;13.570;2023-11-19T14:54:42;11.20;99.90
43641;DHT22;72791;52.546;13.570;2023-11-19T14:57:07;11.20;99.90
43641;DHT22;72791;52.546;13.570;2023-11-19T14:59:34;11.20;99.90
43641;DHT22;72791;52.546;13.570;2023-11-19T15:02:00;11.20;99.90
43641;DHT22;72791;52.546;13.570;2023-11-19T15:04:28;11.20;99.90
43641;DHT22;72791;52.546;13.570;2023-11-19T15:06:57;11.20;99.90
43641;DHT22;72791;52.546;13.570;2023-11-19T15:09:25;11.20;99.90
43641;DHT22;72791;52.546;13.570;2023-11-19T15:11:55;11.20;99.90
43641;DHT22;72791;52.546;13.570;2023-11-19T15:14:23;11.20;99.90
43641;DHT22;72791;52.546;13.570;2023-11-19T15:16:49;11.20;99.90
43641;DHT22;72791;52.546;13.570;2023-11-19T15:19:17;11.20;99.90
43641;DHT22;72791;52.546;13.570;2023-11-19T15:21:42;11.20;99.90
43641;DHT22;72791;52.546;13.570;2023-11-19T15:24:11;11.20;99.90
43641;DHT22;72791;52.546;13.570;2023-11-19T15:26:38;11.20;99.90
43641;DHT22;72791;52.546;13.570;2023-11-19T15:29:04;11.10;99.90
43641;DHT22;72791;52.546;13.570;2023-11-19T15:31:30;11.10;99.90
43641;DHT22;72791;52.546;13.570;2023-11-19T15:34:02;11.20;99.90
43641;DHT22;72791;52.546;13.570;2023-11-19T15:36:28;11.10;99.90
43641;DHT22;72791;52.546;13.570;2023-11-19T15:38:54;11.10;99.90
43641;DHT22;72791;52.546;13.570;2023-11-19T15:41:20;11.10;99.90
43641;DHT22;72791;52.546;13.570;2023-11-19T15:43:45;11.10;99.90
43641;DHT22;72791;52.546;13.570;2023-11-19T15:46:11;11.10;99.90